Time;durP1;ratioP1;P1;durP2;ratioP2;P2;SDS_P1;SDS_P2;PMS_P1;PMS_P2;Temp;Humidity;BMP_temperature;BMP_pressure;BME280_temperature;BME280_humidity;BME280_pressure;Samples;Min_cycle;Max_cycle;Signal;HPM_P1;HPM_P2
2022/01/02 00:02:20;;;;;;;13.77;6.63;;;3.90;99.90;;;;;;4994484;28;20802;-78
2022/01/02 00:04:48;;;;;;;14.10;6.60;;;3.90;99.90;;;;;;4993101;28;20402;-77
2022/01/02 00:07:16;;;;;;;9.87;6.13;;;3.90;99.90;;;;;;4994490;28;20394;-77
2022/01/02 00:09:45;;;;;;;11.67;6.67;;;3.80;99.90;;;;;;4993796;28;20784;-77
2022/01/02 00:12:14;;;;;;;8.00;6.27;;;3.80;99.90;;;;;;4975969;28;21038;-77
2022/01/02 00:14:45;;;;;;;15.10;6.63;;;3.80;99.90;;;;;;4974424;28;20465;-76
2022/01/02 00:17:11;;;;;;;12.27;7.70;;;3.70;99.90;;;;;;4993407;28;20779;-78
2022/01/02 00:19:40;;;;;;;15.95;8.40;;;3.70;99.90;;;;;;4992927;28;20392;-75
2022/01/02 00:22:14;;;;;;;13.60;8.13;;;3.80;99.90;;;;;;4991581;28;20229;-77
2022/01/02 00:24:43;;;;;;;9.60;6.97;;;3.70;99.90;;;;;;4993751;28;20390;-75
2022/01/02 00:27:11;;;;;;;10.53;6.80;;;3.70;99.90;;;;;;4993497;28;20431;-77
2022/01/02 00:29:41;;;;;;;11.50;6.53;;;3.70;99.90;;;;;;4992931;28;20415;-75
2022/01/02 00:32:09;;;;;;;9.13;7.57;;;3.80;99.90;;;;;;4992434;28;20466;-76
2022/01/02 00:34:36;;;;;;;11.40;7.40;;;3.70;99.90;;;;;;4991763;28;20463;-77
2022/01/02 00:37:03;;;;;;;13.80;6.60;;;3.70;99.90;;;;;;4992874;28;20390;-77
2022/01/02 00:39:29;;;;;;;10.77;6.23;;;3.70;99.90;;;;;;4992856;28;20390;-76
2022/01/02 00:42:00;;;;;;;10.87;7.33;;;3.70;99.90;;;;;;4991721;28;20467;-77
2022/01/02 00:44:35;;;;;;;11.47;7.07;;;3.70;99.90;;;;;;4991649;28;20420;-76
2022/01/02 00:47:07;;;;;;;10.90;7.77;;;3.70;99.90;;;;;;4992482;28;20394;-77
2022/01/02 00:49:42;;;;;;;8.70;6.47;;;3.70;99.90;;;;;;4992875;28;20744;-76
2022/01/02 00:52:16;;;;;;;8.63;6.33;;;3.70;99.90;;;;;;4992608;28;20545;-76
2022/01/02 00:54:45;;;;;;;6.37;5.73;;;3.60;99.90;;;;;;4992600;28;20483;-76
2022/01/02 00:57:17;;;;;;;10.70;6.27;;;3.60;99.90;;;;;;4992546;28;20889;-76
2022/01/02 00:59:48;;;;;;;7.70;5.60;;;3.70;99.90;;;;;;4992632;28;20411;-77
2022/01/02 05:31:17;;;;;;;8.70;6.00;;;2.70;99.90;;;;;;5750877;23;20463;-71
2022/01/02 05:33:43;;;;;;;6.50;5.00;;;2.70;99.90;;;;;;4953421;29;21019;-72
2022/01/02 05:36:09;;;;;;;7.03;5.53;;;2.70;99.90;;;;;;4954281;29;20450;-71
2022/01/02 05:38:34;;;;;;;7.27;5.90;;;2.70;99.90;;;;;;4954352;29;20543;-72
2022/01/02 05:41:00;;;;;;;8.40;5.40;;;2.70;99.90;;;;;;4954035;28;20188;-72
2022/01/02 05:43:26;;;;;;;7.23;4.73;;;2.80;99.90;;;;;;4954203;29;20186;-72
2022/01/02 05:45:51;;;;;;;9.57;6.03;;;2.80;99.90;;;;;;4954076;29;20188;-72
2022/01/02 05:48:17;;;;;;;7.90;5.77;;;2.80;99.90;;;;;;4953891;29;20191;-72
2022/01/02 05:50:43;;;;;;;8.87;6.20;;;2.90;99.90;;;;;;4953883;28;20756;-72
2022/01/02 05:53:08;;;;;;;7.60;5.27;;;2.90;99.90;;;;;;4953857;29;20275;-72
2022/01/02 05:55:34;;;;;;;12.10;5.70;;;2.90;99.90;;;;;;4954000;29;20603;-71
2022/01/02 05:57:59;;;;;;;7.10;5.47;;;2.90;99.90;;;;;;4953932;29;20169;-72
2022/01/02 06:00:25;;;;;;;8.17;5.87;;;3.00;99.90;;;;;;4952606;28;20183;-74
2022/01/02 06:02:50;;;;;;;7.03;5.43;;;3.00;99.90;;;;;;4954025;29;20645;-74
2022/01/02 06:05:16;;;;;;;10.63;5.80;;;3.10;99.90;;;;;;4952690;29;20189;-74
2022/01/02 06:07:42;;;;;;;9.40;5.93;;;3.10;99.90;;;;;;4954317;29;20177;-74
2022/01/02 06:10:08;;;;;;;8.60;6.23;;;3.10;99.90;;;;;;4953834;29;20182;-74
2022/01/02 06:12:33;;;;;;;7.90;5.50;;;3.10;99.90;;;;;;4954158;28;20276;-74
2022/01/02 06:14:59;;;;;;;7.20;5.90;;;3.10;99.90;;;;;;4953777;29;20489;-74
2022/01/02 06:17:24;;;;;;;6.93;5.17;;;3.10;99.90;;;;;;4954129;29;20181;-72
2022/01/02 06:19:50;;;;;;;8.20;5.77;;;3.20;99.90;;;;;;4953935;29;20598;-72
2022/01/02 06:22:15;;;;;;;9.10;6.20;;;3.20;99.90;;;;;;4953618;28;20252;-72
2022/01/02 06:24:41;;;;;;;10.10;6.70;;;3.20;99.90;;;;;;4953538;29;20645;-72
2022/01/02 06:27:07;;;;;;;8.20;6.60;;;3.20;99.90;;;;;;4953703;29;20189;-72
2022/01/02 06:29:33;;;;;;;9.83;6.63;;;3.30;99.90;;;;;;4953457;29;20263;-72
2022/01/02 06:31:59;;;;;;;11.93;5.23;;;3.30;99.90;;;;;;4954666;28;20205;-73
2022/01/02 06:34:25;;;;;;;6.53;5.80;;;3.30;99.90;;;;;;4957468;29;20423;-73
2022/01/02 06:36:50;;;;;;;7.60;6.30;;;3.30;99.90;;;;;;4957199;29;20257;-73
2022/01/02 06:39:16;;;;;;;8.10;6.37;;;3.40;99.90;;;;;;4955966;29;20169;-73
2022/01/02 06:41:41;;;;;;;8.27;6.00;;;3.40;99.90;;;;;;4957104;28;20193;-73
2022/01/02 06:44:07;;;;;;;7.50;6.30;;;3.50;99.90;;;;;;4957099;29;20169;-73
2022/01/02 06:46:32;;;;;;;8.43;6.43;;;3.50;99.90;;;;;;4957131;29;20664;-73
2022/01/02 06:48:58;;;;;;;8.90;6.00;;;3.60;99.90;;;;;;4956993;29;20268;-73
2022/01/02 06:51:24;;;;;;;8.23;7.20;;;3.70;99.90;;;;;;4956852;28;20201;-74
2022/01/02 06:53:49;;;;;;;8.27;6.67;;;3.70;99.90;;;;;;4956914;29;20208;-74
2022/01/02 06:56:15;;;;;;;10.40;7.20;;;3.70;99.90;;;;;;4956906;29;20264;-73
2022/01/02 06:58:40;;;;;;;9.93;7.03;;;3.70;99.90;;;;;;4957210;29;20181;-73
2022/01/02 07:01:07;;;;;;;11.73;6.43;;;3.70;99.90;;;;;;4956811;28;20191;-74
2022/01/02 07:03:35;;;;;;;8.60;6.53;;;3.80;99.90;;;;;;4956745;29;20213;-73
2022/01/02 07:06:00;;;;;;;11.60;7.60;;;3.80;99.90;;;;;;4956962;29;20485;-74
2022/01/02 07:08:28;;;;;;;10.73;7.87;;;3.70;99.90;;;;;;4956674;29;20414;-74
2022/01/02 07:10:57;;;;;;;10.77;7.43;;;3.70;99.90;;;;;;4956968;28;20573;-73
2022/01/02 07:13:23;;;;;;;9.67;7.50;;;3.70;99.90;;;;;;4956568;29;20823;-75
2022/01/02 07:15:50;;;;;;;9.67;7.20;;;3.80;99.90;;;;;;4955422;29;20424;-75
2022/01/02 07:18:16;;;;;;;10.43;7.77;;;3.80;99.90;;;;;;4956347;29;20435;-75
2022/01/02 07:20:42;;;;;;;8.77;7.90;;;3.80;99.90;;;;;;4956352;28;20493;-75
2022/01/02 07:23:08;;;;;;;11.10;7.37;;;3.80;99.90;;;;;;4955255;29;20567;-76
2022/01/02 07:25:34;;;;;;;10.00;7.50;;;3.90;99.90;;;;;;4956469;29;20443;-75
2022/01/02 07:27:59;;;;;;;14.13;7.73;;;3.90;99.90;;;;;;4956476;29;20702;-75
2022/01/02 07:30:25;;;;;;;13.97;7.40;;;4.00;99.90;;;;;;4956255;28;20178;-75
2022/01/02 07:32:51;;;;;;;14.40;8.20;;;4.00;99.90;;;;;;4956276;29;20267;-75
2022/01/02 07:35:16;;;;;;;11.50;7.97;;;4.00;99.90;;;;;;4956190;29;20179;-75
2022/01/02 07:37:42;;;;;;;13.20;7.60;;;4.00;99.90;;;;;;4956205;29;20513;-75
2022/01/02 07:40:08;;;;;;;13.63;7.90;;;4.00;99.90;;;;;;4956181;29;20260;-75
2022/01/02 07:42:34;;;;;;;11.03;6.80;;;4.00;99.90;;;;;;4955616;28;20409;-75
2022/01/02 07:44:59;;;;;;;9.90;7.20;;;4.00;99.90;;;;;;4956010;29;20429;-75
2022/01/02 07:47:25;;;;;;;9.93;6.90;;;4.00;99.90;;;;;;4956494;29;20182;-75
2022/01/02 07:49:51;;;;;;;9.80;6.77;;;4.00;99.90;;;;;;4955690;29;20183;-75
2022/01/02 07:52:17;;;;;;;11.03;7.60;;;4.10;99.90;;;;;;4955087;28;20426;-74
2022/01/02 07:54:42;;;;;;;10.30;7.27;;;4.10;99.90;;;;;;4955772;29;20650;-75
2022/01/02 07:57:09;;;;;;;7.57;6.80;;;4.10;99.90;;;;;;4955915;29;20174;-75
2022/01/02 07:59:34;;;;;;;10.80;7.43;;;4.20;99.90;;;;;;4955862;29;20240;-75
2022/01/02 08:02:00;;;;;;;11.70;6.50;;;4.20;99.90;;;;;;4956244;28;20408;-75
2022/01/02 08:04:26;;;;;;;8.43;7.30;;;4.20;99.90;;;;;;4955778;29;20186;-75
2022/01/02 08:06:51;;;;;;;7.80;6.67;;;4.30;99.90;;;;;;4955758;29;20178;-75
2022/01/02 08:09:17;;;;;;;15.43;8.30;;;4.30;99.90;;;;;;4955604;29;20179;-75
2022/01/02 08:11:42;;;;;;;11.83;7.07;;;4.40;99.90;;;;;;4955585;28;20197;-75
2022/01/02 08:14:08;;;;;;;9.40;6.70;;;4.50;99.90;;;;;;4955746;29;20574;-75
2022/01/02 08:16:34;;;;;;;7.43;6.37;;;4.60;99.90;;;;;;4955466;29;20175;-75
2022/01/02 08:19:00;;;;;;;10.63;7.03;;;4.60;99.90;;;;;;4955387;29;20175;-75
2022/01/02 08:21:26;;;;;;;10.40;7.57;;;4.80;99.90;;;;;;4955244;28;20230;-75
2022/01/02 08:23:51;;;;;;;11.07;7.00;;;4.90;99.90;;;;;;4955437;29;20415;-75
2022/01/02 08:26:17;;;;;;;9.97;7.40;;;5.00;99.90;;;;;;4955275;29;20321;-75
2022/01/02 08:28:43;;;;;;;8.90;7.20;;;5.10;99.90;;;;;;4955170;29;20186;-75
2022/01/02 08:31:08;;;;;;;9.63;6.90;;;5.20;99.90;;;;;;4955143;28;20706;-75
2022/01/02 08:33:34;;;;;;;9.43;7.03;;;5.20;99.90;;;;;;4955622;29;20290;-75
2022/01/02 08:36:00;;;;;;;8.40;6.70;;;5.30;99.90;;;;;;4955265;29;20251;-75
2022/01/02 08:38:27;;;;;;;9.57;7.40;;;5.40;99.90;;;;;;4955477;29;20186;-74
2022/01/02 08:40:53;;;;;;;7.70;6.63;;;5.50;99.90;;;;;;4955233;28;20203;-74
2022/01/02 08:43:19;;;;;;;8.57;6.77;;;5.60;99.90;;;;;;4954922;28;20386;-74
2022/01/02 08:45:44;;;;;;;8.40;6.50;;;5.70;99.90;;;;;;4955021;28;20267;-74
2022/01/02 08:48:10;;;;;;;8.60;7.03;;;5.80;99.90;;;;;;4954679;29;20550;-74
2022/01/02 08:50:35;;;;;;;11.70;7.17;;;5.90;99.90;;;;;;4954615;28;20201;-74
2022/01/02 08:53:01;;;;;;;7.70;6.30;;;6.00;99.90;;;;;;4954298;29;20660;-73
2022/01/02 08:55:27;;;;;;;9.97;7.73;;;6.10;99.90;;;;;;4953853;28;20181;-74
2022/01/02 08:57:52;;;;;;;11.27;7.00;;;6.30;99.90;;;;;;4954660;28;20179;-74
2022/01/02 09:00:18;;;;;;;8.73;7.30;;;6.30;99.90;;;;;;4953045;28;20176;-74
2022/01/02 09:02:43;;;;;;;6.80;6.20;;;6.40;99.90;;;;;;4954329;28;20195;-74
2022/01/02 09:05:09;;;;;;;7.70;6.90;;;6.50;99.90;;;;;;4954168;28;20189;-73
2022/01/02 09:07:35;;;;;;;8.50;7.30;;;6.60;99.90;;;;;;4954152;28;20182;-73
2022/01/02 09:10:01;;;;;;;14.73;7.93;;;6.70;99.90;;;;;;4954222;29;20187;-73
2022/01/02 09:12:26;;;;;;;8.83;7.77;;;6.80;99.90;;;;;;4954482;28;20534;-73
2022/01/02 09:14:52;;;;;;;11.10;6.30;;;7.00;99.90;;;;;;4954259;28;20210;-73
2022/01/02 09:17:18;;;;;;;10.63;7.67;;;7.20;99.90;;;;;;4954141;28;20220;-73
2022/01/02 09:19:44;;;;;;;7.03;6.33;;;7.40;99.90;;;;;;4954098;29;20172;-74
2022/01/02 09:22:09;;;;;;;5.73;5.23;;;8.10;99.90;;;;;;4954224;28;20491;-74
2022/01/02 09:24:35;;;;;;;7.60;5.80;;;8.70;99.90;;;;;;4943433;28;20704;-74
2022/01/02 09:27:01;;;;;;;6.10;5.47;;;9.00;99.90;;;;;;4947365;29;20206;-74
2022/01/02 09:29:26;;;;;;;8.37;6.87;;;9.00;99.90;;;;;;4953435;28;20228;-74
2022/01/02 09:31:52;;;;;;;7.40;6.60;;;8.80;99.90;;;;;;4953438;28;20595;-74
2022/01/02 09:34:17;;;;;;;9.43;7.27;;;8.80;99.90;;;;;;4953154;28;20277;-74
2022/01/02 09:36:43;;;;;;;7.90;6.30;;;8.80;99.90;;;;;;4953710;28;20731;-74
2022/01/02 09:39:09;;;;;;;8.47;6.60;;;8.80;99.90;;;;;;4953219;28;20230;-74
2022/01/02 09:41:34;;;;;;;7.00;6.30;;;8.80;99.90;;;;;;4953502;28;20285;-74
2022/01/02 09:44:01;;;;;;;7.97;6.60;;;8.70;99.90;;;;;;4953352;28;20242;-74
2022/01/02 09:46:27;;;;;;;9.37;7.03;;;8.60;99.90;;;;;;4952545;29;20275;-74
2022/01/02 09:48:54;;;;;;;9.27;6.23;;;8.60;99.90;;;;;;4952622;29;20832;-73
2022/01/02 09:51:25;;;;;;;7.47;5.90;;;8.60;99.90;;;;;;4953338;28;20477;-74
2022/01/02 09:53:54;;;;;;;7.30;6.17;;;8.60;99.90;;;;;;4953243;28;20496;-73
2022/01/02 09:56:20;;;;;;;10.17;6.80;;;8.60;99.90;;;;;;4953240;29;20439;-73
2022/01/02 09:58:46;;;;;;;9.43;6.40;;;8.60;99.90;;;;;;4953179;28;20553;-73
2022/01/02 10:01:23;;;;;;;8.50;6.50;;;8.60;99.90;;;;;;4952882;28;20544;-73
2022/01/02 10:03:53;;;;;;;7.40;6.20;;;8.60;99.90;;;;;;4953302;28;20216;-73
2022/01/02 10:06:19;;;;;;;7.23;6.00;;;8.80;99.90;;;;;;4954816;28;20789;-74
2022/01/02 10:08:46;;;;;;;9.10;6.03;;;8.70;99.90;;;;;;4957116;28;20543;-74
2022/01/02 10:11:24;;;;;;;12.40;6.83;;;8.70;99.90;;;;;;4957087;28;20874;-74
2022/01/02 10:13:56;;;;;;;6.93;5.97;;;8.70;99.90;;;;;;4954450;28;20456;-74
2022/01/02 10:16:31;;;;;;;8.73;5.90;;;8.80;99.90;;;;;;4954959;28;20944;-74
2022/01/02 10:18:58;;;;;;;9.03;6.07;;;8.80;99.90;;;;;;4960996;28;20407;-74
2022/01/02 10:21:31;;;;;;;6.30;5.70;;;8.80;99.90;;;;;;4960844;28;20562;-74
2022/01/02 10:24:21;;;;;;;7.47;5.70;;;8.80;99.90;;;;;;4956962;29;20423;-74
2022/01/02 10:27:18;;;;;;;7.63;6.80;;;8.70;99.90;;;;;;4938111;29;20423;-74
2022/01/02 10:29:50;;;;;;;5.80;5.30;;;8.60;99.90;;;;;;4961182;28;20423;-73
2022/01/02 10:32:21;;;;;;;6.60;5.60;;;8.60;99.90;;;;;;4948657;28;20446;-74
2022/01/02 10:34:48;;;;;;;8.40;5.57;;;8.60;99.90;;;;;;4937723;29;20466;-73
2022/01/02 10:37:25;;;;;;;6.07;5.37;;;8.50;99.90;;;;;;4937724;29;21042;-73
2022/01/02 10:39:52;;;;;;;8.23;7.00;;;8.50;99.90;;;;;;4936664;29;21025;-74
2022/01/02 10:42:19;;;;;;;7.20;6.47;;;8.50;99.90;;;;;;4937613;29;20433;-73
2022/01/02 10:44:46;;;;;;;7.50;6.70;;;8.60;99.90;;;;;;4937500;29;20446;-73
2022/01/02 10:47:24;;;;;;;8.50;6.13;;;8.60;99.90;;;;;;4937706;29;20954;-73
2022/01/02 10:49:54;;;;;;;9.53;6.90;;;8.60;99.90;;;;;;4947948;28;20431;-73
2022/01/02 10:52:31;;;;;;;11.73;7.03;;;8.60;99.90;;;;;;4957149;28;21005;-73
2022/01/02 10:55:00;;;;;;;7.30;6.57;;;8.70;99.90;;;;;;4957348;28;20473;-73
2022/01/02 10:57:26;;;;;;;7.90;6.20;;;8.70;99.90;;;;;;4967749;28;20551;-73
2022/01/02 10:59:56;;;;;;;10.50;8.27;;;8.80;99.90;;;;;;4975932;28;20426;-73
2022/01/02 11:02:23;;;;;;;8.83;6.53;;;8.90;99.90;;;;;;4960624;28;20460;-73
2022/01/02 11:04:56;;;;;;;10.40;6.47;;;8.80;99.90;;;;;;4956152;28;20517;-73
2022/01/02 11:07:23;;;;;;;8.97;6.27;;;8.90;99.90;;;;;;4967401;28;20825;-73
2022/01/02 11:09:52;;;;;;;7.70;6.87;;;9.00;99.90;;;;;;4956373;28;20453;-73
2022/01/02 11:12:19;;;;;;;10.03;6.83;;;9.10;99.90;;;;;;4956116;28;20965;-73
2022/01/02 11:14:46;;;;;;;8.30;6.57;;;9.10;99.90;;;;;;4956095;28;20983;-73
2022/01/02 11:17:13;;;;;;;7.23;5.87;;;9.10;99.90;;;;;;4955377;28;20418;-73
2022/01/02 11:19:39;;;;;;;9.77;5.73;;;9.10;99.90;;;;;;4951122;28;20504;-73
2022/01/02 11:22:19;;;;;;;7.97;6.07;;;9.10;99.90;;;;;;4949007;28;20980;-74
2022/01/02 11:25:00;;;;;;;10.70;6.70;;;9.00;99.90;;;;;;4962579;28;20514;-73
2022/01/02 11:27:43;;;;;;;7.97;6.70;;;9.20;99.90;;;;;;4956884;28;20849;-73
2022/01/02 11:30:30;;;;;;;13.43;7.30;;;9.20;99.90;;;;;;4937730;29;20806;-73
2022/01/02 11:33:04;;;;;;;11.53;6.90;;;9.30;99.90;;;;;;4954746;29;20444;-73
2022/01/02 11:35:33;;;;;;;9.90;6.30;;;9.30;99.90;;;;;;4956177;28;20431;-73
2022/01/02 11:38:04;;;;;;;8.03;7.23;;;9.40;99.90;;;;;;4959042;28;20419;-73
2022/01/02 11:40:58;;;;;;;11.90;7.20;;;9.50;99.90;;;;;;4953210;28;20418;-75
2022/01/02 11:43:35;;;;;;;7.63;6.73;;;9.50;99.90;;;;;;4952608;29;20448;-74
2022/01/02 11:46:39;;;;;;;10.90;7.50;;;9.50;99.90;;;;;;4956817;29;20410;-74
2022/01/02 11:49:04;;;;;;;8.73;6.97;;;9.40;99.90;;;;;;4954380;29;20416;-74
2022/01/02 11:52:00;;;;;;;9.30;7.50;;;9.40;99.90;;;;;;4956123;28;20789;-73
2022/01/02 11:54:29;;;;;;;9.90;6.10;;;9.50;99.90;;;;;;4952751;28;20336;-73
2022/01/02 11:56:57;;;;;;;8.27;6.10;;;9.50;99.90;;;;;;4937720;29;20424;-73
2022/01/02 11:59:38;;;;;;;7.10;6.00;;;9.70;99.90;;;;;;4963400;28;20390;-73
2022/01/02 12:02:27;;;;;;;6.87;4.93;;;9.80;99.90;;;;;;4936088;29;20442;-73
2022/01/02 12:05:14;;;;;;;5.13;3.57;;;10.00;99.90;;;;;;4924032;29;20531;-74
2022/01/02 12:07:46;;;;;;;2.03;1.60;;;10.30;99.90;;;;;;4935895;29;20435;-74
2022/01/02 12:10:17;;;;;;;1.40;1.03;;;10.80;99.90;;;;;;4934808;29;20458;-74
2022/01/02 12:13:10;;;;;;;2.20;0.90;;;11.20;99.90;;;;;;4970961;28;20538;-74
2022/01/02 12:15:39;;;;;;;1.00;0.80;;;11.70;99.90;;;;;;4954903;29;20435;-74
2022/01/02 12:18:28;;;;;;;3.63;1.57;;;12.30;99.90;;;;;;4953678;29;21165;-74
2022/01/02 12:20:54;;;;;;;1.77;1.23;;;12.70;99.90;;;;;;4955068;28;20433;-74
2022/01/02 12:23:40;;;;;;;1.47;1.37;;;13.10;99.90;;;;;;4954872;28;20845;-74
2022/01/02 12:26:15;;;;;;;0.90;0.90;;;13.40;99.90;;;;;;4953760;29;20185;-74
2022/01/02 12:28:46;;;;;;;1.27;1.17;;;13.60;99.90;;;;;;4955057;28;20479;-74
2022/01/02 12:31:17;;;;;;;1.63;1.53;;;13.80;99.90;;;;;;4954590;28;20456;-74
2022/01/02 12:33:44;;;;;;;2.00;1.83;;;14.00;99.90;;;;;;4954680;28;20466;-74
2022/01/02 12:36:20;;;;;;;2.70;1.50;;;14.20;99.90;;;;;;4953636;28;20429;-74
2022/01/02 12:38:52;;;;;;;2.50;2.00;;;14.40;99.90;;;;;;4954123;28;21870;-74
2022/01/02 12:41:24;;;;;;;2.10;1.90;;;14.50;99.90;;;;;;4957884;28;21029;-74
2022/01/02 12:43:54;;;;;;;3.30;2.60;;;14.70;99.90;;;;;;4955058;28;20442;-74
2022/01/02 12:46:44;;;;;;;2.30;1.90;;;14.80;99.90;;;;;;4958994;28;20464;-74
2022/01/02 12:49:15;;;;;;;1.60;1.50;;;14.90;99.90;;;;;;4950983;28;20441;-74
2022/01/02 12:51:52;;;;;;;1.77;1.60;;;14.90;99.90;;;;;;4954091;28;21123;-74
2022/01/02 12:54:20;;;;;;;1.57;1.47;;;15.00;99.90;;;;;;4954417;28;20526;-74
2022/01/02 12:56:49;;;;;;;3.93;2.20;;;15.10;99.90;;;;;;4954425;28;20427;-74
2022/01/02 12:59:36;;;;;;;3.03;1.50;;;15.10;99.90;;;;;;4952490;28;20931;-74
2022/01/02 13:02:03;;;;;;;6.47;2.67;;;15.10;99.90;;;;;;4958240;28;20515;-74
2022/01/02 13:04:40;;;;;;;3.50;1.23;;;15.10;99.90;;;;;;4954491;29;20408;-74
2022/01/02 13:07:12;;;;;;;2.50;2.10;;;15.10;99.90;;;;;;4953967;29;20423;-74
2022/01/02 13:09:42;;;;;;;1.90;1.20;;;15.10;99.90;;;;;;4954542;28;20939;-74
2022/01/02 13:12:10;;;;;;;2.80;1.40;;;15.10;99.90;;;;;;4958759;28;20442;-74
2022/01/02 13:14:40;;;;;;;2.00;1.60;;;15.10;99.90;;;;;;4959401;28;20471;-74
2022/01/02 13:17:15;;;;;;;1.60;1.50;;;15.00;99.90;;;;;;4954371;28;20417;-74
2022/01/02 13:19:48;;;;;;;2.53;1.30;;;15.10;99.90;;;;;;4945284;28;20420;-74
2022/01/02 13:22:23;;;;;;;1.88;1.20;;;15.10;99.90;;;;;;4933996;29;20408;-74
2022/01/02 13:24:53;;;;;;;1.77;1.67;;;15.20;99.90;;;;;;4934459;29;20181;-74
2022/01/02 13:27:22;;;;;;;2.30;1.43;;;15.30;99.90;;;;;;4936370;29;20508;-75
2022/01/02 13:29:59;;;;;;;1.50;1.40;;;15.40;99.90;;;;;;4947892;28;20415;-74
2022/01/02 13:32:27;;;;;;;1.50;1.00;;;15.30;99.90;;;;;;4957354;28;20459;-74
2022/01/02 13:35:08;;;;;;;1.23;1.13;;;15.30;99.90;;;;;;4953626;28;20464;-74
2022/01/02 13:37:42;;;;;;;2.90;1.00;;;15.30;99.90;;;;;;4953156;28;20955;-74
2022/01/02 13:40:18;;;;;;;2.93;1.80;;;15.20;99.90;;;;;;4953279;28;20415;-74
2022/01/02 13:42:46;;;;;;;1.40;1.10;;;15.10;99.90;;;;;;4941888;29;20492;-74
2022/01/02 13:45:33;;;;;;;2.73;1.37;;;15.10;99.90;;;;;;4950360;28;20878;-76
2022/01/02 13:48:09;;;;;;;2.67;1.50;;;15.00;99.90;;;;;;4953860;29;20893;-74
2022/01/02 13:50:40;;;;;;;1.30;1.20;;;15.00;99.90;;;;;;4953000;28;20223;-74
2022/01/02 13:53:21;;;;;;;2.63;1.27;;;15.10;99.90;;;;;;4952955;28;20492;-74
2022/01/02 13:55:52;;;;;;;6.07;1.50;;;15.10;99.90;;;;;;4951020;28;20480;-74
2022/01/02 13:58:21;;;;;;;1.50;1.03;;;15.10;99.90;;;;;;4952749;29;20595;-74
2022/01/02 14:00:55;;;;;;;2.80;1.40;;;15.10;99.90;;;;;;4953368;28;20463;-74
2022/01/02 14:03:40;;;;;;;2.50;2.20;;;15.10;99.90;;;;;;4953020;29;20439;-74
2022/01/02 14:06:08;;;;;;;1.77;1.30;;;15.00;99.90;;;;;;4951922;28;20599;-74
2022/01/02 14:08:47;;;;;;;1.67;1.40;;;14.90;99.90;;;;;;4953271;28;20463;-74
2022/01/02 14:11:20;;;;;;;1.37;1.27;;;14.80;99.90;;;;;;4953081;28;20971;-74
2022/01/02 14:13:46;;;;;;;2.70;1.63;;;14.80;99.90;;;;;;4953284;28;21088;-74
2022/01/02 14:16:32;;;;;;;4.00;2.40;;;14.70;99.90;;;;;;4953186;28;20460;-74
2022/01/02 14:18:58;;;;;;;4.33;1.53;;;14.70;99.90;;;;;;4953185;28;20571;-74
2022/01/02 14:21:24;;;;;;;4.83;1.67;;;14.70;99.90;;;;;;4953063;28;20897;-74
2022/01/02 14:23:50;;;;;;;1.43;1.33;;;14.70;99.90;;;;;;4953104;28;20468;-74
2022/01/02 14:26:15;;;;;;;2.23;1.50;;;14.60;99.90;;;;;;4957641;28;20212;-74
2022/01/02 14:28:41;;;;;;;3.43;1.43;;;14.60;99.90;;;;;;4962903;28;20207;-74
2022/01/02 14:31:07;;;;;;;2.40;1.70;;;14.60;99.90;;;;;;4971837;28;20314;-74
2022/01/02 14:33:33;;;;;;;2.50;1.93;;;14.60;99.90;;;;;;4972422;28;20298;-74
2022/01/02 14:35:58;;;;;;;2.50;1.80;;;14.50;99.90;;;;;;4972295;28;20215;-74
2022/01/02 14:38:24;;;;;;;1.53;1.17;;;14.50;99.90;;;;;;4971034;28;20201;-74
2022/01/02 14:40:50;;;;;;;3.70;1.60;;;14.50;99.90;;;;;;4971931;28;20215;-74
2022/01/02 14:43:16;;;;;;;2.70;1.90;;;14.40;99.90;;;;;;4972128;28;20481;-74
2022/01/02 14:45:41;;;;;;;2.20;1.73;;;14.40;99.90;;;;;;4971966;28;20219;-75
2022/01/02 14:48:07;;;;;;;2.10;1.40;;;14.30;99.90;;;;;;4972015;28;20470;-74
2022/01/02 14:50:33;;;;;;;4.23;2.30;;;14.40;99.90;;;;;;4964080;28;20741;-74
2022/01/02 14:52:59;;;;;;;5.20;1.60;;;14.40;99.90;;;;;;4965248;28;20198;-74
2022/01/02 14:55:24;;;;;;;6.20;1.83;;;14.40;99.90;;;;;;4975279;28;20906;-74
2022/01/02 14:57:51;;;;;;;4.20;1.80;;;14.40;99.90;;;;;;4961662;28;20204;-74
2022/01/02 15:00:22;;;;;;;2.20;2.07;;;14.40;99.90;;;;;;4957049;28;20568;-74
2022/01/02 15:02:48;;;;;;;2.83;1.83;;;14.30;99.90;;;;;;4957648;28;20436;-74
2022/01/02 15:05:15;;;;;;;3.47;1.70;;;14.20;99.90;;;;;;4960918;28;20439;-74
2022/01/02 15:07:41;;;;;;;2.33;1.60;;;14.10;99.90;;;;;;4967259;28;20455;-74
2022/01/02 15:10:10;;;;;;;1.57;1.40;;;14.00;99.90;;;;;;4975356;28;20959;-74
2022/01/02 15:12:37;;;;;;;2.10;1.83;;;13.80;99.90;;;;;;4975356;28;20583;-74
2022/01/02 15:15:05;;;;;;;2.80;2.10;;;13.70;99.90;;;;;;4975182;28;20485;-74
2022/01/02 15:17:31;;;;;;;3.83;1.70;;;13.50;99.90;;;;;;4975257;28;20451;-74
2022/01/02 15:19:57;;;;;;;2.20;2.10;;;13.50;99.90;;;;;;4975549;28;20446;-74
2022/01/02 15:22:23;;;;;;;2.70;2.07;;;13.40;99.90;;;;;;4975115;28;20220;-74
2022/01/02 15:24:49;;;;;;;4.20;2.00;;;13.30;99.90;;;;;;4975225;28;20838;-74
2022/01/02 15:27:15;;;;;;;3.23;2.00;;;13.20;99.90;;;;;;4965427;28;20527;-74
2022/01/02 15:29:42;;;;;;;4.50;2.30;;;13.10;99.90;;;;;;4955806;28;20436;-74
2022/01/02 15:32:09;;;;;;;2.37;1.37;;;13.00;99.90;;;;;;4955767;28;20267;-74
2022/01/02 15:34:36;;;;;;;3.70;2.30;;;12.90;99.90;;;;;;4955680;29;20462;-74
2022/01/02 15:37:02;;;;;;;3.60;2.37;;;12.80;99.90;;;;;;4955624;28;20910;-74
2022/01/02 15:39:28;;;;;;;4.20;1.87;;;12.70;99.90;;;;;;4955471;28;20452;-74
2022/01/02 15:41:53;;;;;;;7.00;2.70;;;12.60;99.90;;;;;;4955505;28;20875;-74
2022/01/02 15:44:19;;;;;;;2.90;2.70;;;12.40;99.90;;;;;;4954997;29;20212;-74
2022/01/02 15:46:44;;;;;;;3.27;2.77;;;12.30;99.90;;;;;;4955624;28;20209;-74
2022/01/02 15:49:12;;;;;;;4.47;2.70;;;12.20;99.90;;;;;;4954723;28;20411;-74
2022/01/02 15:51:40;;;;;;;3.10;2.80;;;12.00;99.90;;;;;;4955392;28;20567;-74
2022/01/02 15:54:06;;;;;;;8.17;3.80;;;11.90;99.90;;;;;;4958182;28;20510;-74
2022/01/02 15:56:32;;;;;;;3.50;3.13;;;11.80;99.90;;;;;;4974872;28;20733;-74
2022/01/02 15:58:58;;;;;;;12.67;4.70;;;11.60;99.90;;;;;;4974866;28;20415;-74
2022/01/02 16:01:23;;;;;;;3.73;3.30;;;11.50;99.90;;;;;;4974470;28;20668;-74
2022/01/02 16:03:49;;;;;;;6.53;5.00;;;11.30;99.90;;;;;;4973311;28;20179;-73
2022/01/02 16:06:15;;;;;;;6.47;3.87;;;11.20;99.90;;;;;;4962062;28;20176;-74
2022/01/02 16:08:41;;;;;;;5.30;3.20;;;11.10;99.90;;;;;;4952295;29;20267;-74
2022/01/02 16:11:07;;;;;;;5.80;2.83;;;11.00;99.90;;;;;;4943763;28;20219;-74
2022/01/02 16:13:32;;;;;;;9.43;3.00;;;10.90;99.90;;;;;;4945516;28;20539;-74
2022/01/02 16:15:58;;;;;;;5.30;2.60;;;10.80;99.90;;;;;;4945821;29;20460;-74
2022/01/02 16:18:24;;;;;;;2.77;2.30;;;10.60;99.90;;;;;;4947454;28;20176;-74
2022/01/02 16:20:49;;;;;;;5.93;2.33;;;10.50;99.90;;;;;;4949506;29;20233;-74
2022/01/02 16:23:16;;;;;;;6.37;2.97;;;10.30;99.90;;;;;;4944711;29;20179;-73
2022/01/02 16:25:42;;;;;;;3.27;2.90;;;10.20;99.90;;;;;;4945701;29;20189;-73
2022/01/02 16:28:11;;;;;;;4.80;3.03;;;10.10;99.90;;;;;;4945582;29;20548;-73
2022/01/02 16:30:38;;;;;;;5.90;3.87;;;10.10;99.90;;;;;;4945049;28;20716;-73
2022/01/02 16:33:04;;;;;;;5.07;2.43;;;10.00;99.90;;;;;;4943322;29;20836;-72
2022/01/02 16:35:30;;;;;;;3.80;2.23;;;9.90;99.90;;;;;;4946539;28;20990;-72
2022/01/02 16:37:56;;;;;;;2.80;1.93;;;9.80;99.90;;;;;;4944738;29;20416;-72
2022/01/02 16:40:24;;;;;;;3.33;2.83;;;9.60;99.90;;;;;;4945533;29;20183;-72
2022/01/02 16:42:52;;;;;;;4.93;3.17;;;9.60;99.90;;;;;;4943372;28;20638;-72
2022/01/02 16:45:18;;;;;;;4.07;3.07;;;9.50;99.90;;;;;;4945756;29;20904;-73
2022/01/02 16:47:43;;;;;;;3.13;2.80;;;9.30;99.90;;;;;;4935191;29;20414;-73
2022/01/02 16:50:09;;;;;;;5.50;3.40;;;9.20;99.90;;;;;;4935285;29;20199;-73
2022/01/02 16:52:35;;;;;;;5.90;3.43;;;9.10;99.90;;;;;;4935431;29;20213;-73
2022/01/02 16:55:00;;;;;;;7.37;4.70;;;9.00;99.90;;;;;;4935353;29;20218;-73
2022/01/02 16:57:26;;;;;;;5.00;3.77;;;8.90;99.90;;;;;;4935291;29;20260;-73
2022/01/02 16:59:52;;;;;;;6.43;4.57;;;8.80;99.90;;;;;;4935536;29;20215;-73
2022/01/02 17:02:18;;;;;;;5.30;3.90;;;8.80;99.90;;;;;;4935414;29;20204;-73
2022/01/02 17:04:43;;;;;;;8.10;3.60;;;8.70;99.90;;;;;;4935317;29;20644;-73
2022/01/02 17:07:09;;;;;;;7.77;4.50;;;8.60;99.90;;;;;;4936243;29;20833;-73
2022/01/02 17:09:34;;;;;;;5.43;4.00;;;8.60;99.90;;;;;;4939793;29;20191;-72
2022/01/02 17:12:00;;;;;;;4.10;3.47;;;8.40;99.90;;;;;;4935044;29;20200;-72
2022/01/02 17:14:25;;;;;;;6.30;3.47;;;8.40;99.90;;;;;;4934870;29;20209;-73
2022/01/02 17:16:51;;;;;;;7.90;4.30;;;8.30;99.90;;;;;;4940416;29;20180;-73
2022/01/02 17:19:17;;;;;;;9.47;4.97;;;8.30;99.90;;;;;;4936515;29;20721;-72
2022/01/02 17:21:43;;;;;;;15.27;6.03;;;8.20;99.90;;;;;;4933755;29;20231;-72
2022/01/02 17:24:08;;;;;;;13.30;8.77;;;8.10;99.90;;;;;;4940125;28;20641;-73
2022/01/02 17:26:34;;;;;;;10.03;6.70;;;8.10;99.90;;;;;;4949280;28;20642;-73
2022/01/02 17:29:00;;;;;;;7.00;4.17;;;8.00;99.90;;;;;;4953310;28;20213;-73